Terminal Aerodrome Forecast
Issued by NWS

Home | Current Version | Previous Version | Text Only | Print | Product List | Glossary On
Versions: 1 2 3 4 5 6 7 8 9 10 11 12
000
FTUS46 KSEW 041130
TAFCLM
TAF
KCLM 041130Z 0412/0512 35004KT P6SM VCFG SKC
     FM041800 05006KT P6SM SKC
     FM050300 29006KT P6SM SKC=

USA.gov is the U.S. government's official web portal to all federal, state and local government web resources and services.